sensor_id;sensor_type;location;lat;lon;timestamp;P1;durP1;ratioP1;P2;durP2;ratioP2
75371;SDS011;63956;52.006;5.878;2023-04-06T00:01:39;7.97;;;6.18;;
75371;SDS011;63956;52.006;5.878;2023-04-06T00:04:08;5.18;;;3.35;;
75371;SDS011;63956;52.006;5.878;2023-04-06T00:06:40;5.82;;;3.97;;
75371;SDS011;63956;52.006;5.878;2023-04-06T00:09:09;5.85;;;1.85;;
75371;SDS011;63956;52.006;5.878;2023-04-06T00:11:38;6.15;;;3.97;;
75371;SDS011;63956;52.006;5.878;2023-04-06T00:16:36;6.68;;;3.83;;
75371;SDS011;63956;52.006;5.878;2023-04-06T00:19:06;7.70;;;5.88;;
75371;SDS011;63956;52.006;5.878;2023-04-06T00:21:35;4.85;;;1.50;;
75371;SDS011;63956;52.006;5.878;2023-04-06T00:24:07;4.78;;;3.60;;
75371;SDS011;63956;52.006;5.878;2023-04-06T00:26:36;5.88;;;2.80;;
75371;SDS011;63956;52.006;5.878;2023-04-06T00:29:06;6.50;;;3.72;;
75371;SDS011;63956;52.006;5.878;2023-04-06T00:34:05;8.75;;;3.50;;
75371;SDS011;63956;52.006;5.878;2023-04-06T00:36:34;6.25;;;3.80;;
75371;SDS011;63956;52.006;5.878;2023-04-06T00:39:06;5.72;;;1.90;;
75371;SDS011;63956;52.006;5.878;2023-04-06T00:41:36;6.65;;;5.00;;
75371;SDS011;63956;52.006;5.878;2023-04-06T00:46:34;7.65;;;4.55;;
75371;SDS011;63956;52.006;5.878;2023-04-06T00:51:32;8.30;;;3.92;;
75371;SDS011;63956;52.006;5.878;2023-04-06T00:56:35;6.55;;;4.28;;
75371;SDS011;63956;52.006;5.878;2023-04-06T00:59:04;7.07;;;4.28;;
75371;SDS011;63956;52.006;5.878;2023-04-06T01:01:34;7.03;;;4.03;;
75371;SDS011;63956;52.006;5.878;2023-04-06T01:04:14;6.60;;;4.05;;
75371;SDS011;63956;52.006;5.878;2023-04-06T01:09:12;7.05;;;4.32;;
75371;SDS011;63956;52.006;5.878;2023-04-06T01:11:45;7.07;;;4.30;;
75371;SDS011;63956;52.006;5.878;2023-04-06T01:14:19;6.10;;;4.07;;
75371;SDS011;63956;52.006;5.878;2023-04-06T01:16:58;6.38;;;2.30;;
75371;SDS011;63956;52.006;5.878;2023-04-06T01:19:31;6.10;;;4.32;;
75371;SDS011;63956;52.006;5.878;2023-04-06T01:22:02;8.35;;;5.60;;
75371;SDS011;63956;52.006;5.878;2023-04-06T01:27:08;7.00;;;5.15;;
75371;SDS011;63956;52.006;5.878;2023-04-06T01:29:52;7.68;;;5.13;;
75371;SDS011;63956;52.006;5.878;2023-04-06T01:32:47;6.75;;;4.28;;
75371;SDS011;63956;52.006;5.878;2023-04-06T01:35:25;11.30;;;6.85;;
75371;SDS011;63956;52.006;5.878;2023-04-06T01:38:04;7.07;;;4.22;;
75371;SDS011;63956;52.006;5.878;2023-04-06T01:40:38;6.63;;;4.18;;
75371;SDS011;63956;52.006;5.878;2023-04-06T01:43:08;7.20;;;4.40;;
75371;SDS011;63956;52.006;5.878;2023-04-06T01:45:56;7.13;;;4.05;;
75371;SDS011;63956;52.006;5.878;2023-04-06T01:51:09;10.25;;;6.00;;
75371;SDS011;63956;52.006;5.878;2023-04-06T01:53:46;8.05;;;4.93;;
75371;SDS011;63956;52.006;5.878;2023-04-06T01:56:22;6.95;;;4.82;;
75371;SDS011;63956;52.006;5.878;2023-04-06T01:59:12;6.63;;;3.10;;
75371;SDS011;63956;52.006;5.878;2023-04-06T02:01:42;8.48;;;5.22;;
75371;SDS011;63956;52.006;5.878;2023-04-06T02:04:12;6.60;;;5.15;;
75371;SDS011;63956;52.006;5.878;2023-04-06T02:06:44;7.22;;;4.95;;
75371;SDS011;63956;52.006;5.878;2023-04-06T02:09:18;6.18;;;4.32;;
75371;SDS011;63956;52.006;5.878;2023-04-06T02:11:50;6.63;;;4.63;;
75371;SDS011;63956;52.006;5.878;2023-04-06T02:14:19;6.57;;;4.18;;
75371;SDS011;63956;52.006;5.878;2023-04-06T02:16:52;7.50;;;4.53;;
75371;SDS011;63956;52.006;5.878;2023-04-06T02:19:22;6.05;;;3.97;;
75371;SDS011;63956;52.006;5.878;2023-04-06T02:21:51;7.22;;;3.75;;
75371;SDS011;63956;52.006;5.878;2023-04-06T02:26:51;6.65;;;4.25;;
75371;SDS011;63956;52.006;5.878;2023-04-06T02:29:21;8.77;;;5.60;;
75371;SDS011;63956;52.006;5.878;2023-04-06T02:31:51;6.10;;;4.22;;
75371;SDS011;63956;52.006;5.878;2023-04-06T02:34:21;6.55;;;4.60;;
75371;SDS011;63956;52.006;5.878;2023-04-06T02:36:51;6.53;;;4.35;;
75371;SDS011;63956;52.006;5.878;2023-04-06T02:41:52;8.95;;;5.28;;
75371;SDS011;63956;52.006;5.878;2023-04-06T02:44:24;6.43;;;4.32;;
75371;SDS011;63956;52.006;5.878;2023-04-06T02:49:24;7.70;;;4.95;;
75371;SDS011;63956;52.006;5.878;2023-04-06T02:51:56;6.97;;;4.57;;
75371;SDS011;63956;52.006;5.878;2023-04-06T02:54:29;5.75;;;3.63;;
75371;SDS011;63956;52.006;5.878;2023-04-06T02:57:02;7.28;;;4.28;;
75371;SDS011;63956;52.006;5.878;2023-04-06T02:59:38;6.43;;;3.75;;
75371;SDS011;63956;52.006;5.878;2023-04-06T03:02:22;6.70;;;3.50;;
75371;SDS011;63956;52.006;5.878;2023-04-06T03:04:55;7.80;;;4.68;;
75371;SDS011;63956;52.006;5.878;2023-04-06T03:07:31;8.23;;;4.55;;
75371;SDS011;63956;52.006;5.878;2023-04-06T03:10:01;8.48;;;5.15;;
75371;SDS011;63956;52.006;5.878;2023-04-06T03:12:34;8.73;;;4.90;;
75371;SDS011;63956;52.006;5.878;2023-04-06T03:15:16;8.65;;;5.10;;
75371;SDS011;63956;52.006;5.878;2023-04-06T03:17:50;6.55;;;4.32;;
75371;SDS011;63956;52.006;5.878;2023-04-06T03:20:37;9.00;;;5.13;;
75371;SDS011;63956;52.006;5.878;2023-04-06T03:23:08;8.88;;;5.10;;
75371;SDS011;63956;52.006;5.878;2023-04-06T03:25:41;7.78;;;3.80;;
75371;SDS011;63956;52.006;5.878;2023-04-06T03:28:17;9.18;;;4.95;;
75371;SDS011;63956;52.006;5.878;2023-04-06T03:30:51;6.80;;;4.15;;
75371;SDS011;63956;52.006;5.878;2023-04-06T03:33:39;10.48;;;6.97;;
75371;SDS011;63956;52.006;5.878;2023-04-06T03:36:13;6.38;;;2.30;;
75371;SDS011;63956;52.006;5.878;2023-04-06T03:38:43;9.00;;;5.55;;
75371;SDS011;63956;52.006;5.878;2023-04-06T03:41:14;10.20;;;6.68;;
75371;SDS011;63956;52.006;5.878;2023-04-06T03:43:53;7.88;;;5.28;;
75371;SDS011;63956;52.006;5.878;2023-04-06T03:46:23;7.43;;;4.75;;
75371;SDS011;63956;52.006;5.878;2023-04-06T03:48:55;6.15;;;3.88;;
75371;SDS011;63956;52.006;5.878;2023-04-06T03:51:25;10.07;;;6.18;;
75371;SDS011;63956;52.006;5.878;2023-04-06T03:53:54;7.88;;;5.78;;
75371;SDS011;63956;52.006;5.878;2023-04-06T03:58:56;5.75;;;4.07;;
75371;SDS011;63956;52.006;5.878;2023-04-06T04:01:25;10.00;;;5.57;;
75371;SDS011;63956;52.006;5.878;2023-04-06T04:03:54;14.40;;;9.05;;
75371;SDS011;63956;52.006;5.878;2023-04-06T04:08:53;8.68;;;4.93;;
75371;SDS011;63956;52.006;5.878;2023-04-06T04:11:22;8.00;;;5.53;;
75371;SDS011;63956;52.006;5.878;2023-04-06T04:13:59;9.40;;;5.57;;
75371;SDS011;63956;52.006;5.878;2023-04-06T04:16:30;8.55;;;5.50;;
75371;SDS011;63956;52.006;5.878;2023-04-06T04:18:59;11.30;;;6.05;;
75371;SDS011;63956;52.006;5.878;2023-04-06T04:24:03;10.18;;;6.15;;
75371;SDS011;63956;52.006;5.878;2023-04-06T04:26:34;7.70;;;4.68;;
75371;SDS011;63956;52.006;5.878;2023-04-06T04:29:08;6.55;;;4.22;;
75371;SDS011;63956;52.006;5.878;2023-04-06T04:31:38;12.07;;;6.75;;
75371;SDS011;63956;52.006;5.878;2023-04-06T04:34:14;9.63;;;5.32;;
75371;SDS011;63956;52.006;5.878;2023-04-06T04:36:45;7.82;;;2.63;;
75371;SDS011;63956;52.006;5.878;2023-04-06T04:39:23;7.05;;;4.45;;
75371;SDS011;63956;52.006;5.878;2023-04-06T04:42:00;6.25;;;3.53;;
75371;SDS011;63956;52.006;5.878;2023-04-06T04:44:34;7.30;;;4.22;;
75371;SDS011;63956;52.006;5.878;2023-04-06T04:47:03;7.00;;;4.53;;
75371;SDS011;63956;52.006;5.878;2023-04-06T04:49:41;7.72;;;4.18;;
75371;SDS011;63956;52.006;5.878;2023-04-06T04:52:14;7.22;;;4.40;;
75371;SDS011;63956;52.006;5.878;2023-04-06T04:55:13;6.22;;;3.92;;
75371;SDS011;63956;52.006;5.878;2023-04-06T04:57:46;10.63;;;6.57;;
75371;SDS011;63956;52.006;5.878;2023-04-06T05:00:21;7.80;;;4.95;;
75371;SDS011;63956;52.006;5.878;2023-04-06T05:02:55;14.65;;;8.45;;
75371;SDS011;63956;52.006;5.878;2023-04-06T05:05:30;6.55;;;4.32;;
75371;SDS011;63956;52.006;5.878;2023-04-06T05:08:00;7.50;;;5.22;;
75371;SDS011;63956;52.006;5.878;2023-04-06T05:10:39;8.73;;;5.35;;
75371;SDS011;63956;52.006;5.878;2023-04-06T05:15:40;7.10;;;4.43;;
75371;SDS011;63956;52.006;5.878;2023-04-06T05:18:22;7.30;;;4.35;;
75371;SDS011;63956;52.006;5.878;2023-04-06T05:20:52;6.40;;;3.63;;
75371;SDS011;63956;52.006;5.878;2023-04-06T05:23:28;7.65;;;4.90;;
75371;SDS011;63956;52.006;5.878;2023-04-06T05:26:00;9.07;;;5.15;;
75371;SDS011;63956;52.006;5.878;2023-04-06T05:28:31;7.97;;;4.55;;
75371;SDS011;63956;52.006;5.878;2023-04-06T05:31:05;11.10;;;6.43;;
75371;SDS011;63956;52.006;5.878;2023-04-06T05:33:44;6.75;;;2.47;;
75371;SDS011;63956;52.006;5.878;2023-04-06T05:36:15;9.43;;;5.95;;
75371;SDS011;63956;52.006;5.878;2023-04-06T05:38:46;8.40;;;5.07;;
75371;SDS011;63956;52.006;5.878;2023-04-06T05:41:28;9.68;;;5.95;;
75371;SDS011;63956;52.006;5.878;2023-04-06T05:43:57;12.50;;;7.63;;
75371;SDS011;63956;52.006;5.878;2023-04-06T05:46:30;13.07;;;7.25;;
75371;SDS011;63956;52.006;5.878;2023-04-06T05:49:00;11.20;;;6.43;;
75371;SDS011;63956;52.006;5.878;2023-04-06T05:51:31;10.20;;;5.82;;
75371;SDS011;63956;52.006;5.878;2023-04-06T05:54:02;9.05;;;5.95;;
75371;SDS011;63956;52.006;5.878;2023-04-06T05:56:31;10.38;;;6.32;;
75371;SDS011;63956;52.006;5.878;2023-04-06T05:59:02;9.73;;;5.32;;
75371;SDS011;63956;52.006;5.878;2023-04-06T06:01:34;13.13;;;4.80;;
75371;SDS011;63956;52.006;5.878;2023-04-06T06:04:05;8.20;;;3.83;;
75371;SDS011;63956;52.006;5.878;2023-04-06T06:06:37;9.27;;;5.28;;
75371;SDS011;63956;52.006;5.878;2023-04-06T06:09:15;12.55;;;6.45;;
75371;SDS011;63956;52.006;5.878;2023-04-06T06:11:55;17.23;;;11.15;;
75371;SDS011;63956;52.006;5.878;2023-04-06T06:14:27;9.73;;;4.60;;
75371;SDS011;63956;52.006;5.878;2023-04-06T06:16:59;15.02;;;8.98;;
75371;SDS011;63956;52.006;5.878;2023-04-06T06:19:29;11.40;;;6.13;;
75371;SDS011;63956;52.006;5.878;2023-04-06T06:22:01;11.50;;;5.40;;
75371;SDS011;63956;52.006;5.878;2023-04-06T06:24:33;14.10;;;8.43;;
75371;SDS011;63956;52.006;5.878;2023-04-06T06:27:03;11.88;;;7.43;;
75371;SDS011;63956;52.006;5.878;2023-04-06T06:29:34;10.38;;;7.38;;
75371;SDS011;63956;52.006;5.878;2023-04-06T06:32:06;9.35;;;5.85;;
75371;SDS011;63956;52.006;5.878;2023-04-06T06:34:36;19.52;;;11.18;;
75371;SDS011;63956;52.006;5.878;2023-04-06T06:37:07;12.88;;;7.40;;
75371;SDS011;63956;52.006;5.878;2023-04-06T06:39:37;10.13;;;6.00;;
75371;SDS011;63956;52.006;5.878;2023-04-06T06:42:07;11.45;;;6.50;;
75371;SDS011;63956;52.006;5.878;2023-04-06T06:45:01;12.40;;;6.85;;
75371;SDS011;63956;52.006;5.878;2023-04-06T06:47:33;19.75;;;12.18;;
75371;SDS011;63956;52.006;5.878;2023-04-06T06:50:03;10.57;;;5.55;;
75371;SDS011;63956;52.006;5.878;2023-04-06T06:52:33;9.95;;;5.25;;
75371;SDS011;63956;52.006;5.878;2023-04-06T06:55:03;14.40;;;7.72;;
75371;SDS011;63956;52.006;5.878;2023-04-06T06:57:32;17.67;;;8.02;;
75371;SDS011;63956;52.006;5.878;2023-04-06T07:00:02;13.68;;;7.72;;
75371;SDS011;63956;52.006;5.878;2023-04-06T07:02:34;13.48;;;7.53;;
75371;SDS011;63956;52.006;5.878;2023-04-06T07:05:04;15.73;;;5.72;;
75371;SDS011;63956;52.006;5.878;2023-04-06T07:07:34;17.80;;;10.90;;
75371;SDS011;63956;52.006;5.878;2023-04-06T07:10:04;13.70;;;5.60;;
75371;SDS011;63956;52.006;5.878;2023-04-06T07:12:37;19.02;;;10.13;;
75371;SDS011;63956;52.006;5.878;2023-04-06T07:15:07;10.63;;;4.72;;
75371;SDS011;63956;52.006;5.878;2023-04-06T07:17:40;18.02;;;9.70;;
75371;SDS011;63956;52.006;5.878;2023-04-06T07:20:11;14.60;;;8.95;;
75371;SDS011;63956;52.006;5.878;2023-04-06T07:22:42;11.68;;;6.53;;
75371;SDS011;63956;52.006;5.878;2023-04-06T07:25:12;16.80;;;9.93;;
75371;SDS011;63956;52.006;5.878;2023-04-06T07:27:41;14.07;;;8.70;;
75371;SDS011;63956;52.006;5.878;2023-04-06T07:30:11;12.43;;;8.43;;
75371;SDS011;63956;52.006;5.878;2023-04-06T07:32:44;12.60;;;6.38;;
75371;SDS011;63956;52.006;5.878;2023-04-06T07:35:14;13.02;;;5.93;;
75371;SDS011;63956;52.006;5.878;2023-04-06T07:37:43;16.15;;;9.23;;
75371;SDS011;63956;52.006;5.878;2023-04-06T07:40:12;15.52;;;8.70;;
75371;SDS011;63956;52.006;5.878;2023-04-06T07:42:42;12.85;;;7.07;;
75371;SDS011;63956;52.006;5.878;2023-04-06T07:45:11;11.05;;;7.32;;
75371;SDS011;63956;52.006;5.878;2023-04-06T07:47:44;12.48;;;7.75;;
75371;SDS011;63956;52.006;5.878;2023-04-06T07:50:14;18.23;;;10.07;;
75371;SDS011;63956;52.006;5.878;2023-04-06T07:52:43;11.27;;;6.43;;
75371;SDS011;63956;52.006;5.878;2023-04-06T07:55:14;16.20;;;7.88;;
75371;SDS011;63956;52.006;5.878;2023-04-06T07:57:43;10.15;;;7.18;;
75371;SDS011;63956;52.006;5.878;2023-04-06T08:02:42;12.88;;;7.95;;
75371;SDS011;63956;52.006;5.878;2023-04-06T08:05:13;11.25;;;6.15;;
75371;SDS011;63956;52.006;5.878;2023-04-06T08:07:43;12.40;;;7.65;;
75371;SDS011;63956;52.006;5.878;2023-04-06T08:12:41;9.07;;;5.38;;
75371;SDS011;63956;52.006;5.878;2023-04-06T08:17:39;14.55;;;8.00;;
75371;SDS011;63956;52.006;5.878;2023-04-06T08:20:11;9.60;;;4.22;;
75371;SDS011;63956;52.006;5.878;2023-04-06T08:22:41;10.55;;;6.60;;
75371;SDS011;63956;52.006;5.878;2023-04-06T08:27:39;11.13;;;5.93;;
75371;SDS011;63956;52.006;5.878;2023-04-06T08:32:37;8.75;;;5.03;;
75371;SDS011;63956;52.006;5.878;2023-04-06T08:35:07;10.80;;;6.47;;
75371;SDS011;63956;52.006;5.878;2023-04-06T08:37:39;16.50;;;9.27;;
75371;SDS011;63956;52.006;5.878;2023-04-06T08:40:09;14.38;;;8.65;;
75371;SDS011;63956;52.006;5.878;2023-04-06T08:42:40;10.40;;;6.28;;
75371;SDS011;63956;52.006;5.878;2023-04-06T08:45:12;10.73;;;4.72;;
75371;SDS011;63956;52.006;5.878;2023-04-06T08:47:47;13.88;;;7.97;;
75371;SDS011;63956;52.006;5.878;2023-04-06T08:50:21;12.88;;;6.10;;
75371;SDS011;63956;52.006;5.878;2023-04-06T08:52:53;15.75;;;8.63;;
75371;SDS011;63956;52.006;5.878;2023-04-06T08:55:23;12.63;;;7.32;;
75371;SDS011;63956;52.006;5.878;2023-04-06T08:57:53;21.00;;;11.30;;
75371;SDS011;63956;52.006;5.878;2023-04-06T09:00:23;12.88;;;7.10;;
75371;SDS011;63956;52.006;5.878;2023-04-06T09:02:54;13.57;;;6.35;;
75371;SDS011;63956;52.006;5.878;2023-04-06T09:05:26;12.73;;;6.38;;
75371;SDS011;63956;52.006;5.878;2023-04-06T09:10:26;12.70;;;8.55;;
75371;SDS011;63956;52.006;5.878;2023-04-06T09:13:04;18.75;;;10.48;;
75371;SDS011;63956;52.006;5.878;2023-04-06T09:15:34;14.23;;;7.65;;
75371;SDS011;63956;52.006;5.878;2023-04-06T09:18:03;15.05;;;8.82;;
75371;SDS011;63956;52.006;5.878;2023-04-06T09:20:34;12.32;;;6.78;;
75371;SDS011;63956;52.006;5.878;2023-04-06T09:23:05;13.35;;;9.88;;
75371;SDS011;63956;52.006;5.878;2023-04-06T09:25:35;16.35;;;9.52;;
75371;SDS011;63956;52.006;5.878;2023-04-06T09:30:33;15.75;;;6.72;;
75371;SDS011;63956;52.006;5.878;2023-04-06T09:33:04;9.85;;;6.25;;
75371;SDS011;63956;52.006;5.878;2023-04-06T09:35:33;12.85;;;7.53;;
75371;SDS011;63956;52.006;5.878;2023-04-06T09:38:10;14.82;;;9.45;;
75371;SDS011;63956;52.006;5.878;2023-04-06T09:40:49;13.20;;;8.05;;
75371;SDS011;63956;52.006;5.878;2023-04-06T09:43:25;14.63;;;8.05;;
75371;SDS011;63956;52.006;5.878;2023-04-06T09:45:55;13.35;;;7.90;;
75371;SDS011;63956;52.006;5.878;2023-04-06T09:48:24;11.20;;;7.07;;
75371;SDS011;63956;52.006;5.878;2023-04-06T09:50:56;14.57;;;9.65;;
75371;SDS011;63956;52.006;5.878;2023-04-06T09:53:36;10.52;;;5.20;;
75371;SDS011;63956;52.006;5.878;2023-04-06T09:56:11;11.63;;;7.07;;
75371;SDS011;63956;52.006;5.878;2023-04-06T09:58:46;16.60;;;10.77;;
75371;SDS011;63956;52.006;5.878;2023-04-06T10:01:18;14.02;;;8.48;;
75371;SDS011;63956;52.006;5.878;2023-04-06T10:03:50;18.50;;;11.95;;
75371;SDS011;63956;52.006;5.878;2023-04-06T10:06:31;18.50;;;10.20;;
75371;SDS011;63956;52.006;5.878;2023-04-06T10:09:04;19.85;;;11.63;;
75371;SDS011;63956;52.006;5.878;2023-04-06T10:11:36;18.85;;;10.30;;
75371;SDS011;63956;52.006;5.878;2023-04-06T10:14:06;15.05;;;8.57;;
75371;SDS011;63956;52.006;5.878;2023-04-06T10:16:37;21.40;;;12.02;;
75371;SDS011;63956;52.006;5.878;2023-04-06T10:19:09;19.25;;;11.23;;
75371;SDS011;63956;52.006;5.878;2023-04-06T10:21:42;24.95;;;14.30;;
75371;SDS011;63956;52.006;5.878;2023-04-06T10:24:16;25.35;;;13.93;;
75371;SDS011;63956;52.006;5.878;2023-04-06T10:26:56;20.83;;;12.02;;
75371;SDS011;63956;52.006;5.878;2023-04-06T10:29:26;20.08;;;11.43;;
75371;SDS011;63956;52.006;5.878;2023-04-06T10:31:55;19.70;;;10.93;;
75371;SDS011;63956;52.006;5.878;2023-04-06T10:34:24;13.82;;;8.40;;
75371;SDS011;63956;52.006;5.878;2023-04-06T10:37:10;13.75;;;6.53;;
75371;SDS011;63956;52.006;5.878;2023-04-06T10:39:51;18.88;;;10.40;;
75371;SDS011;63956;52.006;5.878;2023-04-06T10:42:24;23.20;;;11.52;;
75371;SDS011;63956;52.006;5.878;2023-04-06T10:44:53;11.95;;;7.15;;
75371;SDS011;63956;52.006;5.878;2023-04-06T10:47:22;19.77;;;12.15;;
75371;SDS011;63956;52.006;5.878;2023-04-06T10:49:52;19.15;;;11.05;;
75371;SDS011;63956;52.006;5.878;2023-04-06T10:52:21;19.80;;;10.95;;
75371;SDS011;63956;52.006;5.878;2023-04-06T10:54:53;14.07;;;8.63;;
75371;SDS011;63956;52.006;5.878;2023-04-06T10:57:27;12.77;;;8.07;;
75371;SDS011;63956;52.006;5.878;2023-04-06T10:59:57;23.52;;;11.23;;
75371;SDS011;63956;52.006;5.878;2023-04-06T11:02:27;12.45;;;7.68;;
75371;SDS011;63956;52.006;5.878;2023-04-06T11:04:56;16.25;;;9.25;;
75371;SDS011;63956;52.006;5.878;2023-04-06T11:07:26;16.77;;;10.00;;
75371;SDS011;63956;52.006;5.878;2023-04-06T11:09:58;11.98;;;7.72;;
75371;SDS011;63956;52.006;5.878;2023-04-06T11:12:28;25.90;;;11.32;;
75371;SDS011;63956;52.006;5.878;2023-04-06T11:14:58;17.60;;;10.75;;
75371;SDS011;63956;52.006;5.878;2023-04-06T11:17:30;15.30;;;9.40;;
75371;SDS011;63956;52.006;5.878;2023-04-06T11:20:02;13.73;;;8.02;;
75371;SDS011;63956;52.006;5.878;2023-04-06T11:22:32;16.73;;;9.70;;
75371;SDS011;63956;52.006;5.878;2023-04-06T11:25:07;16.17;;;10.30;;
75371;SDS011;63956;52.006;5.878;2023-04-06T11:27:39;12.30;;;6.07;;
75371;SDS011;63956;52.006;5.878;2023-04-06T11:30:09;15.45;;;9.20;;
75371;SDS011;63956;52.006;5.878;2023-04-06T11:32:39;12.40;;;7.47;;
75371;SDS011;63956;52.006;5.878;2023-04-06T11:35:19;16.17;;;10.73;;
75371;SDS011;63956;52.006;5.878;2023-04-06T11:37:49;11.20;;;7.90;;
75371;SDS011;63956;52.006;5.878;2023-04-06T11:40:23;14.73;;;8.90;;
75371;SDS011;63956;52.006;5.878;2023-04-06T11:42:53;14.65;;;9.05;;
75371;SDS011;63956;52.006;5.878;2023-04-06T11:45:23;13.57;;;7.85;;
75371;SDS011;63956;52.006;5.878;2023-04-06T11:47:56;14.90;;;8.65;;
75371;SDS011;63956;52.006;5.878;2023-04-06T11:50:31;12.43;;;8.10;;
75371;SDS011;63956;52.006;5.878;2023-04-06T11:53:02;12.90;;;6.25;;
75371;SDS011;63956;52.006;5.878;2023-04-06T11:55:39;14.80;;;7.57;;
75371;SDS011;63956;52.006;5.878;2023-04-06T11:58:10;13.77;;;7.80;;
75371;SDS011;63956;52.006;5.878;2023-04-06T12:00:40;12.02;;;6.55;;
75371;SDS011;63956;52.006;5.878;2023-04-06T12:03:11;11.88;;;7.50;;
75371;SDS011;63956;52.006;5.878;2023-04-06T12:05:40;15.70;;;8.38;;
75371;SDS011;63956;52.006;5.878;2023-04-06T12:08:09;13.52;;;7.70;;
75371;SDS011;63956;52.006;5.878;2023-04-06T12:10:41;13.68;;;7.50;;
75371;SDS011;63956;52.006;5.878;2023-04-06T12:13:10;11.80;;;7.00;;
75371;SDS011;63956;52.006;5.878;2023-04-06T12:15:39;11.93;;;6.78;;
75371;SDS011;63956;52.006;5.878;2023-04-06T12:18:09;10.70;;;6.72;;
75371;SDS011;63956;52.006;5.878;2023-04-06T12:20:38;8.93;;;5.07;;
75371;SDS011;63956;52.006;5.878;2023-04-06T12:23:07;11.90;;;7.18;;
75371;SDS011;63956;52.006;5.878;2023-04-06T12:25:41;12.85;;;7.82;;
75371;SDS011;63956;52.006;5.878;2023-04-06T12:28:11;11.60;;;7.18;;
75371;SDS011;63956;52.006;5.878;2023-04-06T12:30:41;11.35;;;5.65;;
75371;SDS011;63956;52.006;5.878;2023-04-06T12:33:10;11.15;;;6.47;;
75371;SDS011;63956;52.006;5.878;2023-04-06T12:35:39;11.75;;;5.80;;
75371;SDS011;63956;52.006;5.878;2023-04-06T12:38:08;8.60;;;5.47;;
75371;SDS011;63956;52.006;5.878;2023-04-06T12:40:40;10.88;;;6.18;;
75371;SDS011;63956;52.006;5.878;2023-04-06T12:43:10;6.65;;;3.95;;
75371;SDS011;63956;52.006;5.878;2023-04-06T12:45:39;8.20;;;4.90;;
75371;SDS011;63956;52.006;5.878;2023-04-06T12:48:08;9.00;;;4.30;;
75371;SDS011;63956;52.006;5.878;2023-04-06T12:50:38;8.55;;;5.13;;
75371;SDS011;63956;52.006;5.878;2023-04-06T12:53:07;8.85;;;5.43;;
75371;SDS011;63956;52.006;5.878;2023-04-06T12:55:36;14.20;;;6.55;;
75371;SDS011;63956;52.006;5.878;2023-04-06T12:58:08;6.20;;;3.40;;
75371;SDS011;63956;52.006;5.878;2023-04-06T13:00:37;6.30;;;3.47;;
75371;SDS011;63956;52.006;5.878;2023-04-06T13:03:07;8.27;;;5.78;;
75371;SDS011;63956;52.006;5.878;2023-04-06T13:08:11;8.45;;;4.82;;
75371;SDS011;63956;52.006;5.878;2023-04-06T13:10:43;9.55;;;5.07;;
75371;SDS011;63956;52.006;5.878;2023-04-06T13:13:15;6.93;;;3.67;;
75371;SDS011;63956;52.006;5.878;2023-04-06T13:15:44;6.30;;;3.78;;
75371;SDS011;63956;52.006;5.878;2023-04-06T13:18:13;8.13;;;4.82;;
75371;SDS011;63956;52.006;5.878;2023-04-06T13:20:43;11.23;;;5.75;;
75371;SDS011;63956;52.006;5.878;2023-04-06T13:23:12;9.63;;;4.43;;
75371;SDS011;63956;52.006;5.878;2023-04-06T13:25:41;11.52;;;5.72;;
75371;SDS011;63956;52.006;5.878;2023-04-06T13:28:11;9.68;;;4.88;;
75371;SDS011;63956;52.006;5.878;2023-04-06T13:33:11;8.57;;;3.95;;
75371;SDS011;63956;52.006;5.878;2023-04-06T13:35:44;7.10;;;4.20;;
75371;SDS011;63956;52.006;5.878;2023-04-06T13:38:13;9.77;;;4.55;;
75371;SDS011;63956;52.006;5.878;2023-04-06T13:40:43;6.20;;;3.70;;
75371;SDS011;63956;52.006;5.878;2023-04-06T13:43:12;8.10;;;4.07;;
75371;SDS011;63956;52.006;5.878;2023-04-06T13:45:49;7.75;;;4.90;;
75371;SDS011;63956;52.006;5.878;2023-04-06T13:48:19;7.75;;;4.57;;
75371;SDS011;63956;52.006;5.878;2023-04-06T13:50:49;6.45;;;3.42;;
75371;SDS011;63956;52.006;5.878;2023-04-06T13:53:18;8.10;;;4.50;;
75371;SDS011;63956;52.006;5.878;2023-04-06T13:58:25;7.45;;;3.17;;
75371;SDS011;63956;52.006;5.878;2023-04-06T14:00:56;7.50;;;3.80;;
75371;SDS011;63956;52.006;5.878;2023-04-06T14:03:30;8.43;;;4.90;;
75371;SDS011;63956;52.006;5.878;2023-04-06T14:06:00;8.77;;;4.53;;
75371;SDS011;63956;52.006;5.878;2023-04-06T14:08:29;9.48;;;5.65;;
75371;SDS011;63956;52.006;5.878;2023-04-06T14:10:59;12.52;;;5.82;;
75371;SDS011;63956;52.006;5.878;2023-04-06T14:15:59;10.75;;;5.93;;
75371;SDS011;63956;52.006;5.878;2023-04-06T14:18:28;8.55;;;6.53;;
75371;SDS011;63956;52.006;5.878;2023-04-06T14:20:59;9.88;;;6.32;;
75371;SDS011;63956;52.006;5.878;2023-04-06T14:23:29;9.85;;;6.00;;
75371;SDS011;63956;52.006;5.878;2023-04-06T14:26:01;8.82;;;4.75;;
75371;SDS011;63956;52.006;5.878;2023-04-06T14:28:32;8.55;;;4.60;;
75371;SDS011;63956;52.006;5.878;2023-04-06T14:31:09;7.65;;;4.53;;
75371;SDS011;63956;52.006;5.878;2023-04-06T14:33:40;9.77;;;5.72;;
75371;SDS011;63956;52.006;5.878;2023-04-06T14:36:11;7.88;;;4.68;;
75371;SDS011;63956;52.006;5.878;2023-04-06T14:38:40;10.02;;;6.15;;
75371;SDS011;63956;52.006;5.878;2023-04-06T14:41:14;8.85;;;5.47;;
75371;SDS011;63956;52.006;5.878;2023-04-06T14:43:45;10.20;;;6.80;;
75371;SDS011;63956;52.006;5.878;2023-04-06T14:46:18;10.50;;;6.45;;
75371;SDS011;63956;52.006;5.878;2023-04-06T14:48:47;9.00;;;5.25;;
75371;SDS011;63956;52.006;5.878;2023-04-06T14:51:16;6.63;;;3.58;;
75371;SDS011;63956;52.006;5.878;2023-04-06T14:53:45;9.25;;;4.70;;
75371;SDS011;63956;52.006;5.878;2023-04-06T14:56:18;8.00;;;4.60;;
75371;SDS011;63956;52.006;5.878;2023-04-06T14:58:48;10.80;;;6.82;;
75371;SDS011;63956;52.006;5.878;2023-04-06T15:01:21;11.05;;;6.43;;
75371;SDS011;63956;52.006;5.878;2023-04-06T15:03:50;10.60;;;7.22;;
75371;SDS011;63956;52.006;5.878;2023-04-06T15:06:19;9.50;;;5.43;;
75371;SDS011;63956;52.006;5.878;2023-04-06T15:08:48;7.22;;;4.13;;
75371;SDS011;63956;52.006;5.878;2023-04-06T15:11:18;7.80;;;4.70;;
75371;SDS011;63956;52.006;5.878;2023-04-06T15:16:16;7.63;;;4.63;;
75371;SDS011;63956;52.006;5.878;2023-04-06T15:21:16;7.60;;;3.97;;
75371;SDS011;63956;52.006;5.878;2023-04-06T15:23:46;6.40;;;3.05;;
75371;SDS011;63956;52.006;5.878;2023-04-06T15:26:16;5.85;;;3.20;;
75371;SDS011;63956;52.006;5.878;2023-04-06T15:28:45;8.77;;;4.72;;
75371;SDS011;63956;52.006;5.878;2023-04-06T15:31:15;6.32;;;3.15;;
75371;SDS011;63956;52.006;5.878;2023-04-06T15:33:48;7.30;;;4.70;;
75371;SDS011;63956;52.006;5.878;2023-04-06T15:36:22;7.47;;;4.43;;
75371;SDS011;63956;52.006;5.878;2023-04-06T15:38:54;6.47;;;3.38;;
75371;SDS011;63956;52.006;5.878;2023-04-06T15:41:23;6.32;;;4.13;;
75371;SDS011;63956;52.006;5.878;2023-04-06T15:43:54;6.55;;;4.10;;
75371;SDS011;63956;52.006;5.878;2023-04-06T15:46:23;8.32;;;4.70;;
75371;SDS011;63956;52.006;5.878;2023-04-06T15:48:55;7.50;;;4.57;;
75371;SDS011;63956;52.006;5.878;2023-04-06T15:51:24;6.30;;;3.92;;
75371;SDS011;63956;52.006;5.878;2023-04-06T15:53:54;6.35;;;2.03;;
75371;SDS011;63956;52.006;5.878;2023-04-06T15:58:52;6.95;;;4.55;;
75371;SDS011;63956;52.006;5.878;2023-04-06T16:01:22;5.50;;;2.10;;
75371;SDS011;63956;52.006;5.878;2023-04-06T16:06:22;6.07;;;3.50;;
75371;SDS011;63956;52.006;5.878;2023-04-06T16:08:52;6.13;;;3.85;;
75371;SDS011;63956;52.006;5.878;2023-04-06T16:11:21;6.03;;;3.90;;
75371;SDS011;63956;52.006;5.878;2023-04-06T16:13:50;7.32;;;5.00;;
75371;SDS011;63956;52.006;5.878;2023-04-06T16:18:48;8.25;;;4.68;;
75371;SDS011;63956;52.006;5.878;2023-04-06T16:21:18;7.78;;;4.13;;
75371;SDS011;63956;52.006;5.878;2023-04-06T16:23:49;14.55;;;7.63;;
75371;SDS011;63956;52.006;5.878;2023-04-06T16:26:20;12.65;;;7.60;;